sensor_id;sensor_type;location;lat;lon;timestamp;P1;durP1;ratioP1;P2;durP2;ratioP2
9815;SDS011;4947;44.526;11.360;2022-10-26T00:02:04;20.25;;;8.65;;
9815;SDS011;4947;44.526;11.360;2022-10-26T00:04:31;20.58;;;9.05;;
9815;SDS011;4947;44.526;11.360;2022-10-26T00:06:59;16.63;;;9.30;;
9815;SDS011;4947;44.526;11.360;2022-10-26T00:09:27;18.40;;;8.25;;
9815;SDS011;4947;44.526;11.360;2022-10-26T00:11:54;17.67;;;9.90;;
9815;SDS011;4947;44.526;11.360;2022-10-26T00:14:22;21.08;;;9.75;;
9815;SDS011;4947;44.526;11.360;2022-10-26T00:16:51;18.95;;;8.88;;
9815;SDS011;4947;44.526;11.360;2022-10-26T00:19:19;17.33;;;9.35;;
9815;SDS011;4947;44.526;11.360;2022-10-26T00:21:47;19.45;;;10.00;;
9815;SDS011;4947;44.526;11.360;2022-10-26T00:24:14;14.75;;;9.52;;
9815;SDS011;4947;44.526;11.360;2022-10-26T00:26:41;17.05;;;9.45;;
9815;SDS011;4947;44.526;11.360;2022-10-26T00:29:09;12.90;;;8.43;;
9815;SDS011;4947;44.526;11.360;2022-10-26T00:31:38;16.60;;;8.48;;
9815;SDS011;4947;44.526;11.360;2022-10-26T00:34:08;16.58;;;9.30;;
9815;SDS011;4947;44.526;11.360;2022-10-26T00:36:36;14.90;;;8.95;;
9815;SDS011;4947;44.526;11.360;2022-10-26T00:39:04;13.43;;;9.00;;
9815;SDS011;4947;44.526;11.360;2022-10-26T00:41:32;18.77;;;9.98;;
9815;SDS011;4947;44.526;11.360;2022-10-26T00:44:37;14.23;;;8.63;;
9815;SDS011;4947;44.526;11.360;2022-10-26T00:47:07;17.67;;;8.88;;
9815;SDS011;4947;44.526;11.360;2022-10-26T00:49:37;17.20;;;8.80;;
9815;SDS011;4947;44.526;11.360;2022-10-26T00:52:05;14.68;;;8.73;;
9815;SDS011;4947;44.526;11.360;2022-10-26T00:54:34;21.05;;;10.23;;
9815;SDS011;4947;44.526;11.360;2022-10-26T00:57:02;14.07;;;8.85;;
9815;SDS011;4947;44.526;11.360;2022-10-26T00:59:30;19.27;;;8.77;;
9815;SDS011;4947;44.526;11.360;2022-10-26T01:01:59;18.48;;;8.93;;
9815;SDS011;4947;44.526;11.360;2022-10-26T01:04:27;17.85;;;10.07;;
9815;SDS011;4947;44.526;11.360;2022-10-26T01:06:58;19.13;;;9.30;;
9815;SDS011;4947;44.526;11.360;2022-10-26T01:09:27;19.15;;;9.43;;
9815;SDS011;4947;44.526;11.360;2022-10-26T01:11:55;13.93;;;8.65;;
9815;SDS011;4947;44.526;11.360;2022-10-26T01:14:22;17.95;;;9.85;;
9815;SDS011;4947;44.526;11.360;2022-10-26T01:16:56;20.80;;;9.52;;
9815;SDS011;4947;44.526;11.360;2022-10-26T01:22:37;15.38;;;8.63;;
9815;SDS011;4947;44.526;11.360;2022-10-26T01:25:12;12.95;;;8.98;;
9815;SDS011;4947;44.526;11.360;2022-10-26T01:27:46;14.52;;;8.57;;
9815;SDS011;4947;44.526;11.360;2022-10-26T01:30:19;16.05;;;8.23;;
9815;SDS011;4947;44.526;11.360;2022-10-26T01:35:49;20.83;;;9.05;;
9815;SDS011;4947;44.526;11.360;2022-10-26T01:38:23;17.17;;;9.43;;
9815;SDS011;4947;44.526;11.360;2022-10-26T01:40:57;15.82;;;9.52;;
9815;SDS011;4947;44.526;11.360;2022-10-26T01:43:30;21.38;;;8.98;;
9815;SDS011;4947;44.526;11.360;2022-10-26T01:46:03;18.65;;;8.88;;
9815;SDS011;4947;44.526;11.360;2022-10-26T01:48:33;19.02;;;9.88;;
9815;SDS011;4947;44.526;11.360;2022-10-26T01:51:02;16.23;;;8.88;;
9815;SDS011;4947;44.526;11.360;2022-10-26T01:53:31;19.90;;;9.65;;
9815;SDS011;4947;44.526;11.360;2022-10-26T01:55:58;19.70;;;9.73;;
9815;SDS011;4947;44.526;11.360;2022-10-26T01:58:35;22.27;;;10.80;;
9815;SDS011;4947;44.526;11.360;2022-10-26T02:01:28;20.75;;;9.75;;
9815;SDS011;4947;44.526;11.360;2022-10-26T02:04:07;19.67;;;8.85;;
9815;SDS011;4947;44.526;11.360;2022-10-26T02:06:44;16.48;;;8.40;;
9815;SDS011;4947;44.526;11.360;2022-10-26T02:09:19;17.27;;;9.10;;
9815;SDS011;4947;44.526;11.360;2022-10-26T02:11:54;12.68;;;8.55;;
9815;SDS011;4947;44.526;11.360;2022-10-26T02:14:23;15.25;;;9.13;;
9815;SDS011;4947;44.526;11.360;2022-10-26T02:17:03;13.90;;;8.30;;
9815;SDS011;4947;44.526;11.360;2022-10-26T02:19:36;13.43;;;8.70;;
9815;SDS011;4947;44.526;11.360;2022-10-26T02:22:10;16.52;;;8.95;;
9815;SDS011;4947;44.526;11.360;2022-10-26T02:24:41;14.40;;;8.48;;
9815;SDS011;4947;44.526;11.360;2022-10-26T02:27:11;13.10;;;8.70;;
9815;SDS011;4947;44.526;11.360;2022-10-26T02:29:42;12.70;;;8.55;;
9815;SDS011;4947;44.526;11.360;2022-10-26T02:32:11;23.10;;;10.27;;
9815;SDS011;4947;44.526;11.360;2022-10-26T02:34:40;18.67;;;7.82;;
9815;SDS011;4947;44.526;11.360;2022-10-26T02:37:10;15.57;;;8.95;;
9815;SDS011;4947;44.526;11.360;2022-10-26T02:39:41;15.50;;;9.38;;
9815;SDS011;4947;44.526;11.360;2022-10-26T02:42:11;18.23;;;8.90;;
9815;SDS011;4947;44.526;11.360;2022-10-26T02:44:41;15.95;;;10.63;;
9815;SDS011;4947;44.526;11.360;2022-10-26T02:47:13;16.35;;;8.73;;
9815;SDS011;4947;44.526;11.360;2022-10-26T02:49:41;18.70;;;8.98;;
9815;SDS011;4947;44.526;11.360;2022-10-26T02:52:10;20.33;;;9.82;;
9815;SDS011;4947;44.526;11.360;2022-10-26T02:54:45;18.02;;;9.13;;
9815;SDS011;4947;44.526;11.360;2022-10-26T02:57:18;15.93;;;10.25;;
9815;SDS011;4947;44.526;11.360;2022-10-26T02:59:49;18.13;;;9.85;;
9815;SDS011;4947;44.526;11.360;2022-10-26T03:02:20;17.83;;;9.18;;
9815;SDS011;4947;44.526;11.360;2022-10-26T03:04:48;17.83;;;10.48;;
9815;SDS011;4947;44.526;11.360;2022-10-26T03:07:20;20.98;;;10.57;;
9815;SDS011;4947;44.526;11.360;2022-10-26T03:09:49;15.50;;;10.27;;
9815;SDS011;4947;44.526;11.360;2022-10-26T03:12:16;14.95;;;9.15;;
9815;SDS011;4947;44.526;11.360;2022-10-26T03:14:43;14.70;;;8.70;;
9815;SDS011;4947;44.526;11.360;2022-10-26T03:17:11;17.65;;;9.93;;
9815;SDS011;4947;44.526;11.360;2022-10-26T03:19:40;15.50;;;9.07;;
9815;SDS011;4947;44.526;11.360;2022-10-26T03:22:08;21.77;;;10.30;;
9815;SDS011;4947;44.526;11.360;2022-10-26T03:24:35;16.60;;;9.05;;
9815;SDS011;4947;44.526;11.360;2022-10-26T03:27:03;18.00;;;9.63;;
9815;SDS011;4947;44.526;11.360;2022-10-26T03:29:30;13.60;;;9.30;;
9815;SDS011;4947;44.526;11.360;2022-10-26T03:31:58;19.85;;;9.73;;
9815;SDS011;4947;44.526;11.360;2022-10-26T03:34:26;23.58;;;10.65;;
9815;SDS011;4947;44.526;11.360;2022-10-26T03:36:55;17.38;;;9.68;;
9815;SDS011;4947;44.526;11.360;2022-10-26T03:39:23;19.60;;;9.75;;
9815;SDS011;4947;44.526;11.360;2022-10-26T03:41:50;15.30;;;9.25;;
9815;SDS011;4947;44.526;11.360;2022-10-26T03:44:19;20.92;;;9.15;;
9815;SDS011;4947;44.526;11.360;2022-10-26T03:46:46;17.17;;;9.20;;
9815;SDS011;4947;44.526;11.360;2022-10-26T03:49:14;17.23;;;9.05;;
9815;SDS011;4947;44.526;11.360;2022-10-26T03:51:42;21.98;;;9.15;;
9815;SDS011;4947;44.526;11.360;2022-10-26T03:54:11;18.05;;;8.88;;
9815;SDS011;4947;44.526;11.360;2022-10-26T03:56:39;19.52;;;9.60;;
9815;SDS011;4947;44.526;11.360;2022-10-26T03:59:06;19.15;;;9.68;;
9815;SDS011;4947;44.526;11.360;2022-10-26T04:01:34;15.52;;;9.05;;
9815;SDS011;4947;44.526;11.360;2022-10-26T04:04:01;17.67;;;9.65;;
9815;SDS011;4947;44.526;11.360;2022-10-26T04:06:29;21.67;;;9.90;;
9815;SDS011;4947;44.526;11.360;2022-10-26T04:08:56;17.33;;;10.38;;
9815;SDS011;4947;44.526;11.360;2022-10-26T04:11:28;14.88;;;10.13;;
9815;SDS011;4947;44.526;11.360;2022-10-26T04:13:55;19.63;;;8.73;;
9815;SDS011;4947;44.526;11.360;2022-10-26T04:16:24;16.00;;;8.85;;
9815;SDS011;4947;44.526;11.360;2022-10-26T04:18:52;17.13;;;9.95;;
9815;SDS011;4947;44.526;11.360;2022-10-26T04:21:19;16.30;;;8.50;;
9815;SDS011;4947;44.526;11.360;2022-10-26T04:23:47;20.02;;;9.68;;
9815;SDS011;4947;44.526;11.360;2022-10-26T04:26:14;19.08;;;11.82;;
9815;SDS011;4947;44.526;11.360;2022-10-26T04:28:43;19.63;;;9.40;;
9815;SDS011;4947;44.526;11.360;2022-10-26T04:31:11;20.23;;;9.07;;
9815;SDS011;4947;44.526;11.360;2022-10-26T04:33:40;22.88;;;9.68;;
9815;SDS011;4947;44.526;11.360;2022-10-26T04:36:08;25.30;;;10.07;;
9815;SDS011;4947;44.526;11.360;2022-10-26T04:38:36;26.67;;;11.13;;
9815;SDS011;4947;44.526;11.360;2022-10-26T04:41:04;24.27;;;10.68;;
9815;SDS011;4947;44.526;11.360;2022-10-26T04:43:31;21.35;;;10.75;;
9815;SDS011;4947;44.526;11.360;2022-10-26T04:46:00;20.40;;;10.55;;
9815;SDS011;4947;44.526;11.360;2022-10-26T04:48:28;13.85;;;9.00;;
9815;SDS011;4947;44.526;11.360;2022-10-26T04:50:57;24.90;;;10.00;;
9815;SDS011;4947;44.526;11.360;2022-10-26T04:53:25;23.20;;;10.52;;
9815;SDS011;4947;44.526;11.360;2022-10-26T04:55:55;17.55;;;9.90;;
9815;SDS011;4947;44.526;11.360;2022-10-26T04:58:22;19.75;;;9.77;;
9815;SDS011;4947;44.526;11.360;2022-10-26T05:00:53;16.83;;;10.07;;
9815;SDS011;4947;44.526;11.360;2022-10-26T05:03:22;22.13;;;10.05;;
9815;SDS011;4947;44.526;11.360;2022-10-26T05:05:50;18.00;;;9.93;;
9815;SDS011;4947;44.526;11.360;2022-10-26T05:08:17;17.25;;;10.32;;
9815;SDS011;4947;44.526;11.360;2022-10-26T05:10:46;26.23;;;10.00;;
9815;SDS011;4947;44.526;11.360;2022-10-26T05:13:15;16.63;;;10.35;;
9815;SDS011;4947;44.526;11.360;2022-10-26T05:15:44;15.13;;;10.02;;
9815;SDS011;4947;44.526;11.360;2022-10-26T05:18:11;28.15;;;10.25;;
9815;SDS011;4947;44.526;11.360;2022-10-26T05:20:40;17.27;;;9.63;;
9815;SDS011;4947;44.526;11.360;2022-10-26T05:23:10;28.65;;;10.18;;
9815;SDS011;4947;44.526;11.360;2022-10-26T05:25:42;19.00;;;9.25;;
9815;SDS011;4947;44.526;11.360;2022-10-26T05:28:10;26.77;;;10.35;;
9815;SDS011;4947;44.526;11.360;2022-10-26T05:30:39;19.13;;;11.00;;
9815;SDS011;4947;44.526;11.360;2022-10-26T05:33:07;18.63;;;10.13;;
9815;SDS011;4947;44.526;11.360;2022-10-26T05:35:36;17.08;;;9.88;;
9815;SDS011;4947;44.526;11.360;2022-10-26T05:38:07;19.33;;;9.43;;
9815;SDS011;4947;44.526;11.360;2022-10-26T05:40:36;18.00;;;10.80;;
9815;SDS011;4947;44.526;11.360;2022-10-26T05:43:03;24.70;;;10.30;;
9815;SDS011;4947;44.526;11.360;2022-10-26T05:45:31;18.05;;;10.05;;
9815;SDS011;4947;44.526;11.360;2022-10-26T05:47:59;16.38;;;9.55;;
9815;SDS011;4947;44.526;11.360;2022-10-26T05:50:26;22.60;;;10.63;;
9815;SDS011;4947;44.526;11.360;2022-10-26T05:52:54;20.67;;;10.10;;
9815;SDS011;4947;44.526;11.360;2022-10-26T05:55:24;22.20;;;10.48;;
9815;SDS011;4947;44.526;11.360;2022-10-26T05:57:52;21.27;;;10.18;;
9815;SDS011;4947;44.526;11.360;2022-10-26T06:00:21;29.45;;;11.13;;
9815;SDS011;4947;44.526;11.360;2022-10-26T06:02:55;26.92;;;11.07;;
9815;SDS011;4947;44.526;11.360;2022-10-26T06:05:34;27.90;;;11.52;;
9815;SDS011;4947;44.526;11.360;2022-10-26T06:08:07;27.88;;;10.50;;
9815;SDS011;4947;44.526;11.360;2022-10-26T06:10:39;22.63;;;11.20;;
9815;SDS011;4947;44.526;11.360;2022-10-26T06:13:07;23.08;;;10.63;;
9815;SDS011;4947;44.526;11.360;2022-10-26T06:15:41;24.42;;;11.52;;
9815;SDS011;4947;44.526;11.360;2022-10-26T06:18:19;22.45;;;11.40;;
9815;SDS011;4947;44.526;11.360;2022-10-26T06:21:00;21.02;;;9.70;;
9815;SDS011;4947;44.526;11.360;2022-10-26T06:23:43;18.20;;;11.00;;
9815;SDS011;4947;44.526;11.360;2022-10-26T06:26:18;16.38;;;10.18;;
9815;SDS011;4947;44.526;11.360;2022-10-26T06:28:57;22.27;;;10.90;;
9815;SDS011;4947;44.526;11.360;2022-10-26T06:31:32;28.30;;;10.52;;
9815;SDS011;4947;44.526;11.360;2022-10-26T06:34:00;16.50;;;9.70;;
9815;SDS011;4947;44.526;11.360;2022-10-26T06:36:28;21.38;;;11.65;;
9815;SDS011;4947;44.526;11.360;2022-10-26T06:38:57;15.95;;;9.57;;
9815;SDS011;4947;44.526;11.360;2022-10-26T06:41:31;19.67;;;10.00;;
9815;SDS011;4947;44.526;11.360;2022-10-26T06:44:00;19.17;;;10.80;;
9815;SDS011;4947;44.526;11.360;2022-10-26T06:46:34;18.15;;;10.23;;
9815;SDS011;4947;44.526;11.360;2022-10-26T06:49:07;19.05;;;10.40;;
9815;SDS011;4947;44.526;11.360;2022-10-26T06:51:42;18.65;;;9.85;;
9815;SDS011;4947;44.526;11.360;2022-10-26T06:54:17;20.55;;;9.93;;
9815;SDS011;4947;44.526;11.360;2022-10-26T06:56:50;14.88;;;9.63;;
9815;SDS011;4947;44.526;11.360;2022-10-26T06:59:22;16.48;;;9.68;;
9815;SDS011;4947;44.526;11.360;2022-10-26T07:01:56;19.42;;;9.38;;
9815;SDS011;4947;44.526;11.360;2022-10-26T07:04:24;21.05;;;9.20;;
9815;SDS011;4947;44.526;11.360;2022-10-26T07:06:51;17.13;;;9.25;;
9815;SDS011;4947;44.526;11.360;2022-10-26T07:09:20;18.58;;;9.55;;
9815;SDS011;4947;44.526;11.360;2022-10-26T07:11:48;24.63;;;9.55;;
9815;SDS011;4947;44.526;11.360;2022-10-26T07:14:17;24.75;;;11.35;;
9815;SDS011;4947;44.526;11.360;2022-10-26T07:16:45;17.45;;;9.90;;
9815;SDS011;4947;44.526;11.360;2022-10-26T07:19:13;18.73;;;9.45;;
9815;SDS011;4947;44.526;11.360;2022-10-26T07:21:40;24.48;;;10.15;;
9815;SDS011;4947;44.526;11.360;2022-10-26T07:24:08;19.48;;;9.32;;
9815;SDS011;4947;44.526;11.360;2022-10-26T07:26:38;24.65;;;9.52;;
9815;SDS011;4947;44.526;11.360;2022-10-26T07:29:08;22.00;;;9.93;;
9815;SDS011;4947;44.526;11.360;2022-10-26T07:31:35;15.75;;;8.25;;
9815;SDS011;4947;44.526;11.360;2022-10-26T07:34:02;19.02;;;8.98;;
9815;SDS011;4947;44.526;11.360;2022-10-26T07:36:30;20.13;;;9.82;;
9815;SDS011;4947;44.526;11.360;2022-10-26T07:39:00;20.88;;;10.25;;
9815;SDS011;4947;44.526;11.360;2022-10-26T07:41:28;30.00;;;12.70;;
9815;SDS011;4947;44.526;11.360;2022-10-26T07:43:56;14.23;;;8.95;;
9815;SDS011;4947;44.526;11.360;2022-10-26T07:46:26;17.20;;;8.93;;
9815;SDS011;4947;44.526;11.360;2022-10-26T07:48:53;20.13;;;8.60;;
9815;SDS011;4947;44.526;11.360;2022-10-26T07:51:21;16.58;;;9.15;;
9815;SDS011;4947;44.526;11.360;2022-10-26T07:53:49;21.17;;;8.63;;
9815;SDS011;4947;44.526;11.360;2022-10-26T07:56:17;24.30;;;8.35;;
9815;SDS011;4947;44.526;11.360;2022-10-26T07:58:45;25.60;;;8.55;;
9815;SDS011;4947;44.526;11.360;2022-10-26T08:01:13;19.45;;;8.13;;
9815;SDS011;4947;44.526;11.360;2022-10-26T08:03:43;32.65;;;10.38;;
9815;SDS011;4947;44.526;11.360;2022-10-26T08:06:10;27.20;;;11.40;;
9815;SDS011;4947;44.526;11.360;2022-10-26T08:08:38;18.90;;;9.35;;
9815;SDS011;4947;44.526;11.360;2022-10-26T08:11:06;19.70;;;8.73;;
9815;SDS011;4947;44.526;11.360;2022-10-26T08:13:33;21.77;;;9.65;;
9815;SDS011;4947;44.526;11.360;2022-10-26T08:16:01;17.95;;;9.30;;
9815;SDS011;4947;44.526;11.360;2022-10-26T08:18:30;23.70;;;11.68;;
9815;SDS011;4947;44.526;11.360;2022-10-26T08:21:02;29.25;;;14.68;;
9815;SDS011;4947;44.526;11.360;2022-10-26T08:23:30;26.45;;;13.30;;
9815;SDS011;4947;44.526;11.360;2022-10-26T08:25:58;28.10;;;12.77;;
9815;SDS011;4947;44.526;11.360;2022-10-26T08:28:27;31.73;;;12.85;;
9815;SDS011;4947;44.526;11.360;2022-10-26T08:30:55;26.52;;;13.48;;
9815;SDS011;4947;44.526;11.360;2022-10-26T08:33:24;25.73;;;14.02;;
9815;SDS011;4947;44.526;11.360;2022-10-26T08:35:53;27.63;;;13.85;;
9815;SDS011;4947;44.526;11.360;2022-10-26T08:38:27;25.80;;;13.45;;
9815;SDS011;4947;44.526;11.360;2022-10-26T08:40:55;32.55;;;14.27;;
9815;SDS011;4947;44.526;11.360;2022-10-26T08:43:25;38.38;;;16.85;;
9815;SDS011;4947;44.526;11.360;2022-10-26T08:45:57;30.55;;;14.02;;
9815;SDS011;4947;44.526;11.360;2022-10-26T08:48:32;26.42;;;15.18;;
9815;SDS011;4947;44.526;11.360;2022-10-26T08:51:05;36.08;;;15.18;;
9815;SDS011;4947;44.526;11.360;2022-10-26T08:53:39;31.13;;;14.13;;
9815;SDS011;4947;44.526;11.360;2022-10-26T08:56:10;30.52;;;14.57;;
9815;SDS011;4947;44.526;11.360;2022-10-26T08:58:45;31.80;;;13.68;;
9815;SDS011;4947;44.526;11.360;2022-10-26T09:01:17;28.70;;;13.38;;
9815;SDS011;4947;44.526;11.360;2022-10-26T09:03:45;27.83;;;13.98;;
9815;SDS011;4947;44.526;11.360;2022-10-26T09:06:18;33.42;;;14.20;;
9815;SDS011;4947;44.526;11.360;2022-10-26T09:08:58;25.02;;;13.75;;
9815;SDS011;4947;44.526;11.360;2022-10-26T09:11:44;30.70;;;13.60;;
9815;SDS011;4947;44.526;11.360;2022-10-26T09:14:18;31.25;;;14.32;;
9815;SDS011;4947;44.526;11.360;2022-10-26T09:16:56;32.08;;;13.45;;
9815;SDS011;4947;44.526;11.360;2022-10-26T09:22:29;23.10;;;12.32;;
9815;SDS011;4947;44.526;11.360;2022-10-26T09:25:04;26.67;;;11.95;;
9815;SDS011;4947;44.526;11.360;2022-10-26T09:27:42;24.55;;;11.73;;
9815;SDS011;4947;44.526;11.360;2022-10-26T09:30:13;26.88;;;11.95;;
9815;SDS011;4947;44.526;11.360;2022-10-26T09:32:44;29.67;;;12.68;;
9815;SDS011;4947;44.526;11.360;2022-10-26T09:35:16;29.92;;;12.45;;
9815;SDS011;4947;44.526;11.360;2022-10-26T09:37:47;28.88;;;10.68;;
9815;SDS011;4947;44.526;11.360;2022-10-26T09:40:22;22.55;;;11.90;;
9815;SDS011;4947;44.526;11.360;2022-10-26T09:42:54;24.48;;;11.50;;
9815;SDS011;4947;44.526;11.360;2022-10-26T09:45:28;26.25;;;11.75;;
9815;SDS011;4947;44.526;11.360;2022-10-26T09:48:03;25.08;;;11.48;;
9815;SDS011;4947;44.526;11.360;2022-10-26T09:50:36;25.67;;;10.88;;
9815;SDS011;4947;44.526;11.360;2022-10-26T09:53:06;23.98;;;10.80;;
9815;SDS011;4947;44.526;11.360;2022-10-26T09:55:38;27.20;;;12.65;;
9815;SDS011;4947;44.526;11.360;2022-10-26T09:58:11;34.22;;;13.68;;
9815;SDS011;4947;44.526;11.360;2022-10-26T10:00:41;27.15;;;11.02;;
9815;SDS011;4947;44.526;11.360;2022-10-26T10:03:17;25.33;;;12.23;;
9815;SDS011;4947;44.526;11.360;2022-10-26T10:05:47;21.90;;;12.38;;
9815;SDS011;4947;44.526;11.360;2022-10-26T10:08:16;24.05;;;10.45;;
9815;SDS011;4947;44.526;11.360;2022-10-26T10:11:06;27.23;;;12.38;;
9815;SDS011;4947;44.526;11.360;2022-10-26T10:13:35;26.45;;;11.18;;
9815;SDS011;4947;44.526;11.360;2022-10-26T10:16:05;19.75;;;10.88;;
9815;SDS011;4947;44.526;11.360;2022-10-26T10:18:37;26.65;;;11.68;;
9815;SDS011;4947;44.526;11.360;2022-10-26T10:21:06;21.48;;;11.63;;
9815;SDS011;4947;44.526;11.360;2022-10-26T10:23:35;23.92;;;10.55;;
9815;SDS011;4947;44.526;11.360;2022-10-26T10:26:08;20.08;;;10.57;;
9815;SDS011;4947;44.526;11.360;2022-10-26T10:28:36;27.02;;;11.70;;
9815;SDS011;4947;44.526;11.360;2022-10-26T10:31:17;21.50;;;10.10;;
9815;SDS011;4947;44.526;11.360;2022-10-26T10:33:46;18.55;;;10.73;;
9815;SDS011;4947;44.526;11.360;2022-10-26T10:36:15;30.23;;;10.63;;
9815;SDS011;4947;44.526;11.360;2022-10-26T10:38:46;22.25;;;9.75;;
9815;SDS011;4947;44.526;11.360;2022-10-26T10:41:26;22.60;;;10.93;;
9815;SDS011;4947;44.526;11.360;2022-10-26T10:43:59;27.00;;;10.18;;
9815;SDS011;4947;44.526;11.360;2022-10-26T10:46:31;23.10;;;10.32;;
9815;SDS011;4947;44.526;11.360;2022-10-26T10:49:00;22.20;;;8.38;;
9815;SDS011;4947;44.526;11.360;2022-10-26T10:51:30;25.13;;;10.27;;
9815;SDS011;4947;44.526;11.360;2022-10-26T10:54:04;24.35;;;9.73;;
9815;SDS011;4947;44.526;11.360;2022-10-26T10:56:44;20.75;;;9.65;;
9815;SDS011;4947;44.526;11.360;2022-10-26T10:59:34;18.83;;;9.00;;
9815;SDS011;4947;44.526;11.360;2022-10-26T11:02:20;27.15;;;8.90;;
9815;SDS011;4947;44.526;11.360;2022-10-26T11:05:10;23.35;;;9.95;;
9815;SDS011;4947;44.526;11.360;2022-10-26T11:07:49;21.50;;;7.80;;
9815;SDS011;4947;44.526;11.360;2022-10-26T11:10:20;18.73;;;7.72;;
9815;SDS011;4947;44.526;11.360;2022-10-26T11:12:54;24.10;;;7.72;;
9815;SDS011;4947;44.526;11.360;2022-10-26T11:15:25;20.50;;;7.60;;
9815;SDS011;4947;44.526;11.360;2022-10-26T11:17:58;26.55;;;7.82;;
9815;SDS011;4947;44.526;11.360;2022-10-26T11:20:31;21.45;;;8.25;;
9815;SDS011;4947;44.526;11.360;2022-10-26T11:23:06;23.08;;;7.65;;
9815;SDS011;4947;44.526;11.360;2022-10-26T11:25:39;16.63;;;7.28;;
9815;SDS011;4947;44.526;11.360;2022-10-26T11:28:14;16.15;;;6.88;;
9815;SDS011;4947;44.526;11.360;2022-10-26T11:30:46;16.02;;;6.68;;
9815;SDS011;4947;44.526;11.360;2022-10-26T11:33:18;16.17;;;7.47;;
9815;SDS011;4947;44.526;11.360;2022-10-26T11:35:52;18.38;;;6.65;;
9815;SDS011;4947;44.526;11.360;2022-10-26T11:38:27;20.67;;;7.30;;
9815;SDS011;4947;44.526;11.360;2022-10-26T11:41:00;18.95;;;8.23;;
9815;SDS011;4947;44.526;11.360;2022-10-26T11:43:42;23.15;;;6.40;;
9815;SDS011;4947;44.526;11.360;2022-10-26T11:46:12;21.20;;;5.82;;
9815;SDS011;4947;44.526;11.360;2022-10-26T11:48:45;17.80;;;6.18;;
9815;SDS011;4947;44.526;11.360;2022-10-26T11:51:31;18.02;;;6.32;;
9815;SDS011;4947;44.526;11.360;2022-10-26T11:54:06;14.00;;;5.85;;
9815;SDS011;4947;44.526;11.360;2022-10-26T11:56:39;12.77;;;5.18;;
9815;SDS011;4947;44.526;11.360;2022-10-26T11:59:15;15.45;;;5.38;;
9815;SDS011;4947;44.526;11.360;2022-10-26T12:01:46;15.93;;;5.55;;
9815;SDS011;4947;44.526;11.360;2022-10-26T12:04:16;16.75;;;5.47;;
9815;SDS011;4947;44.526;11.360;2022-10-26T12:06:45;14.00;;;6.22;;
9815;SDS011;4947;44.526;11.360;2022-10-26T12:09:16;20.38;;;5.50;;
9815;SDS011;4947;44.526;11.360;2022-10-26T12:11:51;14.60;;;6.07;;
9815;SDS011;4947;44.526;11.360;2022-10-26T12:14:26;9.75;;;4.78;;
9815;SDS011;4947;44.526;11.360;2022-10-26T12:17:01;17.67;;;5.10;;
9815;SDS011;4947;44.526;11.360;2022-10-26T12:19:34;15.60;;;5.75;;
9815;SDS011;4947;44.526;11.360;2022-10-26T12:22:08;13.90;;;6.18;;
9815;SDS011;4947;44.526;11.360;2022-10-26T12:24:42;13.05;;;5.18;;
9815;SDS011;4947;44.526;11.360;2022-10-26T12:32:52;14.27;;;4.60;;
9815;SDS011;4947;44.526;11.360;2022-10-26T12:35:37;15.32;;;4.60;;
9815;SDS011;4947;44.526;11.360;2022-10-26T12:41:19;12.35;;;5.07;;
9815;SDS011;4947;44.526;11.360;2022-10-26T12:43:54;14.07;;;5.13;;
9815;SDS011;4947;44.526;11.360;2022-10-26T12:52:24;17.60;;;4.95;;
9815;SDS011;4947;44.526;11.360;2022-10-26T12:55:12;9.15;;;4.30;;
9815;SDS011;4947;44.526;11.360;2022-10-26T12:58:16;14.10;;;5.53;;
9815;SDS011;4947;44.526;11.360;2022-10-26T13:01:09;25.05;;;4.60;;
9815;SDS011;4947;44.526;11.360;2022-10-26T13:03:50;15.65;;;5.53;;
9815;SDS011;4947;44.526;11.360;2022-10-26T13:06:34;13.40;;;4.93;;
9815;SDS011;4947;44.526;11.360;2022-10-26T13:09:13;12.18;;;4.60;;
9815;SDS011;4947;44.526;11.360;2022-10-26T13:11:46;20.05;;;4.70;;
9815;SDS011;4947;44.526;11.360;2022-10-26T13:14:18;17.33;;;5.07;;
9815;SDS011;4947;44.526;11.360;2022-10-26T13:16:48;17.42;;;5.10;;
9815;SDS011;4947;44.526;11.360;2022-10-26T13:19:24;14.60;;;5.05;;
9815;SDS011;4947;44.526;11.360;2022-10-26T13:21:56;15.48;;;4.82;;
9815;SDS011;4947;44.526;11.360;2022-10-26T13:24:26;12.52;;;4.05;;
9815;SDS011;4947;44.526;11.360;2022-10-26T13:30:17;13.38;;;4.60;;
9815;SDS011;4947;44.526;11.360;2022-10-26T13:33:01;12.98;;;4.53;;
9815;SDS011;4947;44.526;11.360;2022-10-26T13:35:34;10.82;;;4.05;;
9815;SDS011;4947;44.526;11.360;2022-10-26T13:38:09;11.32;;;4.38;;
9815;SDS011;4947;44.526;11.360;2022-10-26T13:40:38;9.20;;;3.83;;
9815;SDS011;4947;44.526;11.360;2022-10-26T13:43:10;20.35;;;5.00;;
9815;SDS011;4947;44.526;11.360;2022-10-26T13:45:53;12.38;;;4.22;;
9815;SDS011;4947;44.526;11.360;2022-10-26T13:48:22;10.05;;;4.18;;
9815;SDS011;4947;44.526;11.360;2022-10-26T13:50:59;13.57;;;4.10;;
9815;SDS011;4947;44.526;11.360;2022-10-26T13:53:33;18.13;;;4.38;;
9815;SDS011;4947;44.526;11.360;2022-10-26T13:56:05;10.85;;;4.35;;
9815;SDS011;4947;44.526;11.360;2022-10-26T13:58:46;15.60;;;3.85;;
9815;SDS011;4947;44.526;11.360;2022-10-26T14:01:18;12.23;;;3.75;;
9815;SDS011;4947;44.526;11.360;2022-10-26T14:03:47;11.73;;;4.53;;
9815;SDS011;4947;44.526;11.360;2022-10-26T14:06:22;19.35;;;4.55;;
9815;SDS011;4947;44.526;11.360;2022-10-26T14:08:54;15.65;;;3.97;;
9815;SDS011;4947;44.526;11.360;2022-10-26T14:11:27;12.80;;;4.38;;
9815;SDS011;4947;44.526;11.360;2022-10-26T14:13:59;8.23;;;4.30;;
9815;SDS011;4947;44.526;11.360;2022-10-26T14:16:29;12.35;;;3.92;;
9815;SDS011;4947;44.526;11.360;2022-10-26T14:18:59;11.45;;;4.22;;
9815;SDS011;4947;44.526;11.360;2022-10-26T14:21:28;17.90;;;4.55;;
9815;SDS011;4947;44.526;11.360;2022-10-26T14:23:57;15.88;;;4.20;;
9815;SDS011;4947;44.526;11.360;2022-10-26T14:26:28;13.80;;;4.43;;
9815;SDS011;4947;44.526;11.360;2022-10-26T14:28:58;10.88;;;4.15;;
9815;SDS011;4947;44.526;11.360;2022-10-26T14:31:27;12.82;;;4.22;;
9815;SDS011;4947;44.526;11.360;2022-10-26T14:33:55;14.00;;;4.18;;
9815;SDS011;4947;44.526;11.360;2022-10-26T14:36:25;17.08;;;5.25;;
9815;SDS011;4947;44.526;11.360;2022-10-26T14:39:07;9.05;;;4.38;;
9815;SDS011;4947;44.526;11.360;2022-10-26T14:41:42;15.80;;;4.50;;
9815;SDS011;4947;44.526;11.360;2022-10-26T14:44:12;16.48;;;4.53;;
9815;SDS011;4947;44.526;11.360;2022-10-26T14:46:43;14.77;;;4.13;;
9815;SDS011;4947;44.526;11.360;2022-10-26T14:49:15;10.32;;;3.70;;
9815;SDS011;4947;44.526;11.360;2022-10-26T14:51:54;15.27;;;3.97;;
9815;SDS011;4947;44.526;11.360;2022-10-26T14:54:25;18.25;;;4.70;;
9815;SDS011;4947;44.526;11.360;2022-10-26T14:56:54;16.38;;;4.03;;
9815;SDS011;4947;44.526;11.360;2022-10-26T14:59:23;10.65;;;4.15;;
9815;SDS011;4947;44.526;11.360;2022-10-26T15:01:52;18.90;;;4.30;;
9815;SDS011;4947;44.526;11.360;2022-10-26T15:04:29;16.67;;;4.88;;
9815;SDS011;4947;44.526;11.360;2022-10-26T15:07:06;18.10;;;5.72;;
9815;SDS011;4947;44.526;11.360;2022-10-26T15:09:45;12.68;;;4.40;;
9815;SDS011;4947;44.526;11.360;2022-10-26T15:12:26;16.65;;;4.43;;
9815;SDS011;4947;44.526;11.360;2022-10-26T15:14:58;12.20;;;4.88;;
9815;SDS011;4947;44.526;11.360;2022-10-26T15:17:35;18.85;;;4.45;;
9815;SDS011;4947;44.526;11.360;2022-10-26T15:20:11;17.23;;;4.15;;
9815;SDS011;4947;44.526;11.360;2022-10-26T15:22:42;13.65;;;4.40;;
9815;SDS011;4947;44.526;11.360;2022-10-26T15:25:20;17.50;;;4.70;;
9815;SDS011;4947;44.526;11.360;2022-10-26T15:27:50;17.63;;;4.63;;
9815;SDS011;4947;44.526;11.360;2022-10-26T15:30:22;15.23;;;5.38;;
9815;SDS011;4947;44.526;11.360;2022-10-26T15:32:52;18.42;;;4.72;;
9815;SDS011;4947;44.526;11.360;2022-10-26T15:35:25;15.70;;;5.20;;
9815;SDS011;4947;44.526;11.360;2022-10-26T15:37:54;16.90;;;4.75;;